Dunton, Colorado
Current Conditions -  °F | °C
As of 8:53 PM on Saturday 24 Jan 2015 (Local Time) from KCEZ Reporting Station
Clear Clear  
Wind Chill: 10°   Ceiling: Unl
Heat Index: 26°   Visibility: 10mi
Dew Point: 16°   Wind: 28mph
Humidity: 66%   Direction: 160°SSE
Pressure: 30.27"   Gusts: 71mph
Location:  37.5429°N, 108.35°W
Report Text: KCEZ 250353Z AUTO 16024G62KT 10SM CLR M03/M09 A3027 RMK AO2 PK WND 21062/0352 SLP271 T10331089
Loading
Personal Weather Stations






























Interactive Weather Map New forecast layout! Learn more

10-Day Weather Forecast

Advertisements
Track Severe Weather on mobile